createdAt,value
2023-05-10T00:01:44.723Z,96298.50
2023-05-10T00:04:11.436Z,96321.41
2023-05-10T00:06:38.058Z,96303.19
2023-05-10T00:09:04.867Z,96311.44
2023-05-10T00:11:31.652Z,96317.53
2023-05-10T00:13:58.278Z,96318.34
2023-05-10T00:16:24.931Z,96318.56
2023-05-10T00:18:51.601Z,96300.72
2023-05-10T00:21:18.211Z,96307.81
2023-05-10T00:23:47.900Z,96303.16
2023-05-10T00:26:14.638Z,96297.66
2023-05-10T00:28:41.185Z,96304.34
2023-05-10T00:31:07.717Z,96313.28
2023-05-10T00:33:34.290Z,96300.72
2023-05-10T00:36:00.996Z,96305.53
2023-05-10T00:38:27.622Z,96294.41
2023-05-10T00:40:54.182Z,96299.28
2023-05-10T00:43:20.763Z,96291.34
2023-05-10T00:45:47.840Z,96297.25
2023-05-10T00:48:14.596Z,96307.16
2023-05-10T00:50:41.614Z,96299.66
2023-05-10T00:53:08.854Z,96302.09
2023-05-10T00:55:35.607Z,96307.59
2023-05-10T00:58:02.595Z,96315.28
2023-05-10T01:00:30.630Z,96315.09
2023-05-10T01:02:57.446Z,96298.84
2023-05-10T01:05:24.223Z,96298.84
2023-05-10T01:07:50.874Z,96302.09
2023-05-10T01:10:17.885Z,96290.72
2023-05-10T01:12:46.619Z,96301.28
2023-05-10T01:15:13.875Z,96317.50
2023-05-10T01:17:41.777Z,96310.22
2023-05-10T01:20:09.344Z,96308.00
2023-05-10T01:22:54.002Z,96306.78
2023-05-10T01:25:35.485Z,96297.66
2023-05-10T01:28:11.021Z,96323.41
2023-05-10T01:31:05.576Z,96317.34
2023-05-10T01:33:48.715Z,96327.47
2023-05-10T01:36:32.453Z,96325.84
2023-05-10T01:39:11.737Z,96307.00
2023-05-10T01:41:45.958Z,96313.31
2023-05-10T01:44:19.810Z,96320.00
2023-05-10T01:46:51.008Z,96320.84
2023-05-10T01:49:28.765Z,96309.44
2023-05-10T01:52:03.148Z,96326.09
2023-05-10T01:54:30.355Z,96321.81
2023-05-10T01:57:00.527Z,96315.94
2023-05-10T01:59:31.240Z,96327.44
2023-05-10T02:02:00.073Z,96328.47
2023-05-10T02:04:27.964Z,96323.59
2023-05-10T02:06:55.350Z,96317.53
2023-05-10T02:09:22.397Z,96322.59
2023-05-10T02:11:49.776Z,96308.59
2023-05-10T02:14:16.878Z,96321.38
2023-05-10T02:16:44.343Z,96312.69
2023-05-10T02:19:11.377Z,96318.56
2023-05-10T02:21:39.234Z,96325.47
2023-05-10T02:24:06.450Z,96324.75
2023-05-10T02:26:34.034Z,96321.09
2023-05-10T02:29:04.342Z,96326.41
2023-05-10T02:31:33.322Z,96336.84
2023-05-10T02:34:01.319Z,96328.34
2023-05-10T02:36:31.235Z,96336.97
2023-05-10T02:38:58.242Z,96338.09
2023-05-10T02:41:25.791Z,96321.41
2023-05-10T02:43:57.224Z,96325.00
2023-05-10T02:46:24.521Z,96339.69
2023-05-10T02:48:51.239Z,96333.00
2023-05-10T02:51:20.068Z,96337.47
2023-05-10T02:53:47.816Z,96324.03
2023-05-10T02:56:36.121Z,96343.78
2023-05-10T02:59:02.859Z,96324.03
2023-05-10T03:01:30.502Z,96335.03
2023-05-10T03:03:57.335Z,96333.38
2023-05-10T03:06:23.973Z,96341.13
2023-05-10T03:08:50.592Z,96341.13
2023-05-10T03:11:29.986Z,96331.78
2023-05-10T03:14:18.482Z,96326.28
2023-05-10T03:16:53.869Z,96347.97
2023-05-10T03:19:55.673Z,96352.25
2023-05-10T03:22:39.368Z,96340.47
2023-05-10T03:25:07.984Z,96351.47
2023-05-10T03:27:35.716Z,96347.97
2023-05-10T03:30:03.627Z,96343.53
2023-05-10T03:32:31.324Z,96351.03
2023-05-10T03:34:57.958Z,96355.31
2023-05-10T03:44:58.194Z,96345.25
2023-05-10T03:47:24.851Z,96350.09
2023-05-10T03:49:51.591Z,96349.91
2023-05-10T03:52:18.183Z,96349.84
2023-05-10T03:54:44.850Z,96351.91
2023-05-10T03:57:11.518Z,96362.06
2023-05-10T03:59:38.184Z,96364.91
2023-05-10T04:02:04.834Z,96363.69
2023-05-10T04:04:31.722Z,96375.06
2023-05-10T04:06:58.454Z,96373.66
2023-05-10T04:09:25.151Z,96373.63
2023-05-10T04:11:52.219Z,96367.16
2023-05-10T04:14:18.814Z,96363.69
2023-05-10T04:16:45.867Z,96373.06
2023-05-10T04:19:12.757Z,96371.44
2023-05-10T04:21:39.309Z,96375.91
2023-05-10T04:24:06.154Z,96380.09
2023-05-10T04:26:32.763Z,96377.53
2023-05-10T04:28:59.340Z,96372.47
2023-05-10T04:31:26.021Z,96378.34
2023-05-10T04:33:52.656Z,96374.09
2023-05-10T04:36:19.317Z,96380.16
2023-05-10T04:38:45.898Z,96381.75
2023-05-10T04:41:12.700Z,96394.94
2023-05-10T04:43:39.793Z,96391.28
2023-05-10T04:46:06.909Z,96386.41
2023-05-10T04:48:33.622Z,96376.91
2023-05-10T04:51:00.293Z,96390.75
2023-05-10T04:53:26.981Z,96403.88
2023-05-10T04:55:53.632Z,96408.16
2023-05-10T04:58:20.205Z,96406.91
2023-05-10T05:00:46.869Z,96411.59
2023-05-10T05:03:13.519Z,96415.25
2023-05-10T05:05:40.169Z,96420.97
2023-05-10T05:08:06.898Z,96419.97
2023-05-10T05:10:33.545Z,96415.28
2023-05-10T05:13:00.274Z,96430.09
2023-05-10T05:15:27.091Z,96432.13
2023-05-10T05:17:53.739Z,96429.06
2023-05-10T05:20:20.365Z,96431.13
2023-05-10T05:22:46.970Z,96428.44
2023-05-10T05:25:13.850Z,96440.41
2023-05-10T05:27:40.471Z,96431.06
2023-05-10T05:30:07.734Z,96436.31
2023-05-10T05:32:34.308Z,96437.69
2023-05-10T05:35:01.041Z,96436.66
2023-05-10T05:37:27.618Z,96441.09
2023-05-10T05:39:55.979Z,96434.41
2023-05-10T05:42:22.600Z,96435.09
2023-05-10T05:44:49.289Z,96444.03
2023-05-10T05:47:15.988Z,96444.47
2023-05-10T05:49:42.624Z,96447.19
2023-05-10T05:52:09.264Z,96448.38
2023-05-10T05:54:36.009Z,96456.31
2023-05-10T05:57:02.715Z,96450.03
2023-05-10T05:59:29.397Z,96459.75
2023-05-10T06:01:56.147Z,96469.91
2023-05-10T06:04:22.937Z,96465.84
2023-05-10T06:06:49.693Z,96465.00
2023-05-10T06:09:16.896Z,96459.34
2023-05-10T06:11:43.963Z,96472.34
2023-05-10T06:14:11.610Z,96465.97
2023-05-10T06:16:38.304Z,96467.81
2023-05-10T06:19:05.167Z,96464.25
2023-05-10T06:21:31.828Z,96473.38
2023-05-10T06:23:58.489Z,96475.72
2023-05-10T06:26:25.186Z,96479.25
2023-05-10T06:28:51.855Z,96478.00
2023-05-10T06:31:18.868Z,96493.44
2023-05-10T06:33:45.774Z,96486.97
2023-05-10T06:36:12.425Z,96484.75
2023-05-10T06:38:39.140Z,96486.44
2023-05-10T06:41:05.786Z,96476.53
2023-05-10T06:43:32.706Z,96484.91
2023-05-10T06:45:59.483Z,96495.56
2023-05-10T06:48:26.213Z,96482.88
2023-05-10T06:50:52.965Z,96500.69
2023-05-10T06:53:19.668Z,96513.81
2023-05-10T06:55:46.600Z,96506.00
2023-05-10T06:58:29.063Z,96510.81
2023-05-10T07:00:55.698Z,96506.31
2023-05-10T07:03:22.334Z,96509.16
2023-05-10T07:05:49.112Z,96506.25
2023-05-10T07:08:15.864Z,96514.03
2023-05-10T07:10:42.503Z,96507.72
2023-05-10T07:13:09.223Z,96513.88
2023-05-10T07:15:35.993Z,96521.53
2023-05-10T07:18:02.788Z,96522.06
2023-05-10T07:20:29.515Z,96517.59
2023-05-10T07:22:56.176Z,96521.25
2023-05-10T07:25:22.856Z,96517.56
2023-05-10T07:27:49.721Z,96521.47
2023-05-10T07:30:16.455Z,96526.56
2023-05-10T07:32:43.352Z,96525.00
2023-05-10T07:35:10.011Z,96523.44
2023-05-10T07:37:37.064Z,96524.47
2023-05-10T07:40:03.803Z,96520.44
2023-05-10T07:42:30.493Z,96527.19
2023-05-10T07:44:57.201Z,96525.00
2023-05-10T07:47:24.537Z,96519.38
2023-05-10T07:49:51.343Z,96525.22
2023-05-10T07:52:18.070Z,96529.69
2023-05-10T07:54:45.637Z,96522.13
2023-05-10T07:57:12.300Z,96535.13
2023-05-10T07:59:38.922Z,96529.91
2023-05-10T08:02:05.638Z,96526.59
2023-05-10T08:04:32.295Z,96526.84
2023-05-10T08:06:58.882Z,96536.66
2023-05-10T08:09:25.665Z,96523.81
2023-05-10T08:12:01.991Z,96548.47
2023-05-10T08:14:31.624Z,96540.22
2023-05-10T08:16:58.256Z,96556.16
2023-05-10T08:19:25.116Z,96552.06
2023-05-10T08:21:52.081Z,96560.28
2023-05-10T08:24:18.759Z,96556.56
2023-05-10T08:26:45.409Z,96549.72
2023-05-10T08:29:12.089Z,96550.09
2023-05-10T08:31:38.742Z,96561.66
2023-05-10T08:34:05.474Z,96552.50
2023-05-10T08:36:33.163Z,96574.81
2023-05-10T08:38:59.893Z,96566.13
2023-05-10T08:41:29.435Z,96557.34
2023-05-10T08:43:56.437Z,96568.84
2023-05-10T08:46:24.513Z,96559.19
2023-05-10T08:48:52.815Z,96567.81
2023-05-10T08:51:22.300Z,96568.25
2023-05-10T08:53:49.252Z,96575.41
2023-05-10T08:56:17.014Z,96566.00
2023-05-10T08:58:44.043Z,96572.91
2023-05-10T09:01:11.109Z,96565.56
2023-05-10T09:03:40.346Z,96581.47
2023-05-10T09:06:08.130Z,96563.31
2023-05-10T09:08:34.953Z,96571.28
2023-05-10T09:11:02.586Z,96581.97
2023-05-10T09:13:29.941Z,96571.28
2023-05-10T09:15:58.786Z,96574.41
2023-05-10T09:18:28.892Z,96567.72
2023-05-10T09:20:55.917Z,96596.91
2023-05-10T09:23:22.673Z,96594.31
2023-05-10T09:25:49.752Z,96582.53
2023-05-10T09:28:16.616Z,96602.88
2023-05-10T09:30:44.057Z,96590.44
2023-05-10T09:33:11.161Z,96589.75
2023-05-10T09:35:40.667Z,96592.16
2023-05-10T09:38:07.738Z,96598.84
2023-05-10T09:40:34.753Z,96600.66
2023-05-10T09:43:10.192Z,96591.78
2023-05-10T09:45:38.843Z,96603.50
2023-05-10T09:48:06.918Z,96601.19
2023-05-10T09:50:35.506Z,96600.84
2023-05-10T09:53:06.951Z,96604.00
2023-05-10T09:55:49.319Z,96605.81
2023-05-10T09:58:17.106Z,96603.75
2023-05-10T10:00:46.131Z,96599.59
2023-05-10T10:03:26.541Z,96613.59
2023-05-10T10:05:57.425Z,96596.84
2023-05-10T10:08:25.716Z,96595.69
2023-05-10T10:10:53.161Z,96596.78
2023-05-10T10:13:28.050Z,96596.19
2023-05-10T10:15:59.941Z,96590.28
2023-05-10T10:18:28.541Z,96602.94
2023-05-10T10:20:59.019Z,96587.25
2023-05-10T10:23:28.932Z,96596.91
2023-05-10T10:26:00.782Z,96596.66
2023-05-10T10:28:53.044Z,96590.50
2023-05-10T10:31:29.210Z,96606.84
2023-05-10T10:34:08.286Z,96599.63
2023-05-10T10:36:50.013Z,96592.66
2023-05-10T10:39:17.309Z,96595.22
2023-05-10T10:41:55.626Z,96601.56
2023-05-10T10:44:31.970Z,96615.13
2023-05-10T10:47:10.373Z,96614.59
2023-05-10T10:49:45.034Z,96608.47
2023-05-10T10:52:31.195Z,96608.03
2023-05-10T10:55:26.150Z,96598.16
2023-05-10T10:58:01.989Z,96607.41
2023-05-10T11:00:29.908Z,96606.16
2023-05-10T11:03:24.575Z,96589.41
2023-05-10T11:05:54.127Z,96603.72
2023-05-10T11:08:28.922Z,96595.38
2023-05-10T11:11:29.191Z,96598.72
2023-05-10T11:14:07.949Z,96594.25
2023-05-10T11:16:44.937Z,96601.78
2023-05-10T11:19:13.287Z,96608.22
2023-05-10T11:21:52.982Z,96622.47
2023-05-10T11:24:21.505Z,96610.47
2023-05-10T11:26:51.264Z,96614.66
2023-05-10T11:29:18.044Z,96616.91
2023-05-10T11:31:46.455Z,96635.44
2023-05-10T11:34:17.768Z,96630.16
2023-05-10T11:36:44.453Z,96627.50
2023-05-10T11:39:12.556Z,96628.88
2023-05-10T11:41:42.333Z,96625.16
2023-05-10T11:44:10.293Z,96624.59
2023-05-10T11:46:37.896Z,96626.97
2023-05-10T11:49:08.022Z,96633.44
2023-05-10T11:51:36.897Z,96647.50
2023-05-10T11:54:07.658Z,96644.59
2023-05-10T11:56:34.482Z,96636.09
2023-05-10T11:59:02.938Z,96632.88
2023-05-10T12:01:29.842Z,96634.88
2023-05-10T12:04:01.549Z,96634.97
2023-05-10T12:06:30.482Z,96648.53
2023-05-10T12:08:57.187Z,96649.75
2023-05-10T12:11:28.398Z,96653.31
2023-05-10T12:13:55.813Z,96644.00
2023-05-10T12:16:28.011Z,96647.22
2023-05-10T12:18:58.888Z,96640.69
2023-05-10T12:21:26.308Z,96660.06
2023-05-10T12:24:01.270Z,96663.38
2023-05-10T12:26:29.248Z,96669.28
2023-05-10T12:28:56.421Z,96673.38
2023-05-10T12:31:23.145Z,96666.59
2023-05-10T12:33:50.463Z,96656.00
2023-05-10T12:36:17.773Z,96659.47
2023-05-10T12:38:51.084Z,96669.94
2023-05-10T12:41:18.970Z,96681.00
2023-05-10T12:43:49.285Z,96683.16
2023-05-10T12:46:18.266Z,96683.66
2023-05-10T12:48:45.601Z,96680.44
2023-05-10T12:51:20.738Z,96684.78
2023-05-10T12:53:49.709Z,96682.03
2023-05-10T12:56:16.518Z,96685.59
2023-05-10T12:58:43.184Z,96702.88
2023-05-10T13:01:09.953Z,96690.31
2023-05-10T13:03:36.689Z,96693.25
2023-05-10T13:06:03.307Z,96698.69
2023-05-10T13:08:34.545Z,96706.56
2023-05-10T13:11:02.154Z,96689.31
2023-05-10T13:13:28.845Z,96690.41
2023-05-10T13:15:55.675Z,96687.81
2023-05-10T13:18:22.522Z,96689.63
2023-05-10T13:20:50.671Z,96680.97
2023-05-10T13:23:17.400Z,96678.28
2023-05-10T13:25:44.037Z,96674.13
2023-05-10T13:28:10.776Z,96686.91
2023-05-10T13:30:37.526Z,96679.28
2023-05-10T13:33:04.361Z,96674.50
2023-05-10T13:35:31.245Z,96681.16
2023-05-10T13:37:58.703Z,96682.72
2023-05-10T13:40:25.368Z,96678.19
2023-05-10T13:42:52.062Z,96683.78
2023-05-10T13:45:18.956Z,96689.53
2023-05-10T13:47:45.909Z,96685.13
2023-05-10T13:50:12.604Z,96691.25
2023-05-10T13:52:39.252Z,96686.56
2023-05-10T13:55:06.202Z,96704.84
2023-05-10T13:57:32.906Z,96703.16
2023-05-10T13:59:59.578Z,96689.81
2023-05-10T14:02:26.861Z,96695.91
2023-05-10T14:04:53.603Z,96698.03
2023-05-10T14:07:20.311Z,96689.50
2023-05-10T14:09:47.073Z,96701.06
2023-05-10T14:12:15.587Z,96688.63
2023-05-10T14:14:42.454Z,96684.00
2023-05-10T14:17:11.434Z,96701.75
2023-05-10T14:19:40.085Z,96692.38
2023-05-10T14:22:07.123Z,96699.03
2023-05-10T14:24:33.717Z,96696.78
2023-05-10T14:27:00.441Z,96686.56
2023-05-10T14:29:27.170Z,96682.94
2023-05-10T14:31:53.867Z,96691.88
2023-05-10T14:34:20.968Z,96681.56
2023-05-10T14:36:47.593Z,96680.09
2023-05-10T14:39:14.409Z,96687.00
2023-05-10T14:41:43.988Z,96686.31
2023-05-10T14:44:11.537Z,96688.97
2023-05-10T14:46:38.373Z,96689.03
2023-05-10T14:49:05.287Z,96698.72
2023-05-10T14:51:32.915Z,96682.78
2023-05-10T14:53:59.990Z,96689.69
2023-05-10T14:56:27.174Z,96686.41
2023-05-10T14:58:53.859Z,96692.41
2023-05-10T15:01:21.105Z,96686.56
2023-05-10T15:03:48.453Z,96684.16
2023-05-10T15:06:17.016Z,96690.69
2023-05-10T15:08:43.715Z,96697.34
2023-05-10T15:11:10.550Z,96698.66
2023-05-10T15:13:37.124Z,96693.31
2023-05-10T15:16:03.785Z,96691.09
2023-05-10T15:18:30.525Z,96689.31
2023-05-10T15:20:57.176Z,96696.69
2023-05-10T15:23:23.968Z,96702.03
2023-05-10T15:25:53.275Z,96696.94
2023-05-10T15:28:19.895Z,96705.84
2023-05-10T15:30:46.459Z,96699.13
2023-05-10T15:33:13.053Z,96703.50
2023-05-10T15:35:40.564Z,96701.09
2023-05-10T15:38:07.219Z,96690.06
2023-05-10T15:40:33.913Z,96695.56
2023-05-10T15:43:00.534Z,96693.94
2023-05-10T15:45:27.584Z,96698.72
2023-05-10T15:47:54.322Z,96701.13
2023-05-10T15:50:20.941Z,96707.75
2023-05-10T15:52:47.591Z,96703.66
2023-05-10T15:55:14.610Z,96706.94
2023-05-10T15:57:42.530Z,96699.91
2023-05-10T16:00:11.735Z,96724.91
2023-05-10T16:02:39.156Z,96709.38
2023-05-10T16:05:06.229Z,96717.03
2023-05-10T16:07:32.823Z,96715.09
2023-05-10T16:09:59.464Z,96733.13
2023-05-10T16:12:26.314Z,96721.66
2023-05-10T16:14:53.052Z,96717.63
2023-05-10T16:17:20.453Z,96722.56
2023-05-10T16:19:47.607Z,96728.13
2023-05-10T16:22:15.043Z,96733.03
2023-05-10T16:24:42.465Z,96739.53
2023-05-10T16:27:09.148Z,96733.97
2023-05-10T16:29:35.888Z,96735.06
2023-05-10T16:32:02.572Z,96747.75
2023-05-10T16:34:29.148Z,96732.00
2023-05-10T16:36:55.785Z,96742.41
2023-05-10T16:39:22.363Z,96746.56
2023-05-10T16:41:49.013Z,96744.66
2023-05-10T16:44:15.655Z,96740.66
2023-05-10T16:46:42.439Z,96751.63
2023-05-10T16:49:09.284Z,96747.28
2023-05-10T16:51:35.982Z,96745.59
2023-05-10T16:54:02.637Z,96767.88
2023-05-10T16:56:29.495Z,96756.81
2023-05-10T16:58:56.177Z,96753.16
2023-05-10T17:01:24.951Z,96765.50
2023-05-10T17:03:53.128Z,96762.94
2023-05-10T17:06:19.880Z,96765.03
2023-05-10T17:08:46.919Z,96758.03
2023-05-10T17:11:13.914Z,96754.41
2023-05-10T17:13:40.620Z,96774.16
2023-05-10T17:16:08.396Z,96768.78
2023-05-10T17:18:35.216Z,96766.16
2023-05-10T17:21:01.906Z,96779.13
2023-05-10T17:23:28.669Z,96767.84
2023-05-10T17:25:55.447Z,96770.81
2023-05-10T17:28:22.137Z,96781.22
2023-05-10T17:30:56.212Z,96771.69
2023-05-10T17:33:22.820Z,96780.06
2023-05-10T17:35:49.752Z,96773.56
2023-05-10T17:38:16.411Z,96788.63
2023-05-10T17:40:43.130Z,96777.47
2023-05-10T17:43:09.754Z,96777.91
2023-05-10T17:45:36.489Z,96784.50
2023-05-10T17:48:04.242Z,96789.69
2023-05-10T17:50:32.734Z,96787.28
2023-05-10T17:52:59.369Z,96779.38
2023-05-10T17:55:27.165Z,96779.41
2023-05-10T17:57:53.953Z,96771.91
2023-05-10T18:00:20.818Z,96774.53
2023-05-10T18:02:47.464Z,96783.09
2023-05-10T18:05:14.429Z,96779.84
2023-05-10T18:07:41.156Z,96781.88
2023-05-10T18:10:08.196Z,96789.19
2023-05-10T18:12:34.957Z,96790.25
2023-05-10T18:15:01.645Z,96789.81
2023-05-10T18:17:28.328Z,96779.50
2023-05-10T18:19:55.201Z,96795.16
2023-05-10T18:22:21.816Z,96794.38
2023-05-10T18:24:48.429Z,96797.81
2023-05-10T18:27:15.046Z,96793.94
2023-05-10T18:29:42.389Z,96805.56
2023-05-10T18:32:09.046Z,96802.09
2023-05-10T18:34:35.923Z,96807.78
2023-05-10T18:37:07.557Z,96799.66
2023-05-10T18:39:34.670Z,96807.81
2023-05-10T18:42:01.463Z,96804.56
2023-05-10T18:44:29.088Z,96807.00
2023-05-10T18:46:55.964Z,96811.25
2023-05-10T18:49:22.860Z,96818.59
2023-05-10T18:51:49.458Z,96812.47
2023-05-10T18:54:16.273Z,96812.88
2023-05-10T18:56:45.266Z,96829.56
2023-05-10T18:59:12.527Z,96833.59
2023-05-10T19:01:40.888Z,96820.59
2023-05-10T19:04:08.916Z,96825.06
2023-05-10T19:06:36.193Z,96841.75
2023-05-10T19:09:03.219Z,96835.44
2023-05-10T19:11:32.320Z,96840.72
2023-05-10T19:13:59.066Z,96837.25
2023-05-10T19:16:28.795Z,96836.44
2023-05-10T19:18:56.957Z,96843.97
2023-05-10T19:21:23.736Z,96835.81
2023-05-10T19:23:50.424Z,96838.25
2023-05-10T19:26:17.223Z,96852.28
2023-05-10T19:28:44.154Z,96849.03
2023-05-10T19:31:10.979Z,96856.16
2023-05-10T19:33:37.740Z,96855.75
2023-05-10T19:36:04.433Z,96845.16
2023-05-10T19:38:31.159Z,96852.28
2023-05-10T19:40:58.694Z,96864.88
2023-05-10T19:43:32.138Z,96866.06
2023-05-10T19:46:01.169Z,96862.81
2023-05-10T19:48:28.154Z,96846.53
2023-05-10T19:51:00.048Z,96851.22
2023-05-10T19:53:27.173Z,96852.84
2023-05-10T19:55:54.462Z,96860.97
2023-05-10T19:58:21.140Z,96858.31
2023-05-10T20:00:47.870Z,96860.75
2023-05-10T20:03:15.445Z,96857.09
2023-05-10T20:05:42.049Z,96864.03
2023-05-10T20:08:08.762Z,96853.41
2023-05-10T20:10:35.364Z,96854.88
2023-05-10T20:13:02.045Z,96846.50
2023-05-10T20:15:30.026Z,96861.94
2023-05-10T20:17:56.724Z,96869.25
2023-05-10T20:20:23.737Z,96862.75
2023-05-10T20:22:50.810Z,96857.44
2023-05-10T20:25:18.367Z,96864.38
2023-05-10T20:27:45.521Z,96856.84
2023-05-10T20:30:12.565Z,96863.13
2023-05-10T20:32:39.376Z,96856.22
2023-05-10T20:35:07.256Z,96874.72
2023-05-10T20:37:34.020Z,96871.28
2023-05-10T20:40:00.822Z,96850.53
2023-05-10T20:42:27.431Z,96869.44
2023-05-10T20:44:54.157Z,96875.75
2023-05-10T20:47:21.993Z,96869.47
2023-05-10T20:49:48.671Z,96875.75
2023-05-10T20:52:15.525Z,96872.09
2023-05-10T20:54:42.194Z,96872.09
2023-05-10T20:57:09.149Z,96869.25
2023-05-10T20:59:35.819Z,96872.91
2023-05-10T21:02:02.521Z,96863.34
2023-05-10T21:04:29.359Z,96868.84
2023-05-10T21:06:57.036Z,96877.78
2023-05-10T21:09:23.728Z,96870.25
2023-05-10T21:11:50.867Z,96867.63
2023-05-10T21:14:17.680Z,96870.25
2023-05-10T21:16:44.394Z,96863.56
2023-05-10T21:19:11.829Z,96877.19
2023-05-10T21:21:38.543Z,96864.34
2023-05-10T21:24:05.481Z,96859.03
2023-05-10T21:26:32.276Z,96875.72
2023-05-10T21:28:59.433Z,96867.97
2023-05-10T21:31:26.120Z,96851.66
2023-05-10T21:33:52.818Z,96845.13
2023-05-10T21:36:19.595Z,96851.00
2023-05-10T21:38:46.854Z,96861.75
2023-05-10T21:41:13.555Z,96857.59
2023-05-10T21:43:40.422Z,96854.31
2023-05-10T21:46:07.480Z,96861.03
2023-05-10T21:48:34.136Z,96861.22
2023-05-10T21:51:01.770Z,96864.25
2023-05-10T21:53:29.044Z,96860.72
2023-05-10T21:55:56.324Z,96858.06
2023-05-10T21:58:23.394Z,96864.97
2023-05-10T22:00:50.075Z,96859.47
2023-05-10T22:03:18.074Z,96853.34
2023-05-10T22:05:44.990Z,96851.84
2023-05-10T22:08:11.658Z,96866.75
2023-05-10T22:10:38.369Z,96871.19
2023-05-10T22:13:05.061Z,96858.56
2023-05-10T22:15:34.148Z,96847.59
2023-05-10T22:18:02.490Z,96856.13
2023-05-10T22:20:29.263Z,96855.88
2023-05-10T22:22:56.163Z,96852.19
2023-05-10T22:25:22.944Z,96862.06
2023-05-10T22:27:49.600Z,96854.28
2023-05-10T22:30:17.043Z,96860.00
2023-05-10T22:32:44.144Z,96858.75
2023-05-10T22:35:10.836Z,96867.91
2023-05-10T22:37:37.649Z,96868.69
2023-05-10T22:40:04.759Z,96869.31
2023-05-10T22:42:31.445Z,96873.56
2023-05-10T22:44:58.913Z,96876.94
2023-05-10T22:47:25.800Z,96863.94
2023-05-10T22:49:52.559Z,96869.72
2023-05-10T22:52:19.209Z,96876.25
2023-05-10T22:54:45.861Z,96871.47
2023-05-10T22:57:12.695Z,96867.84
2023-05-10T22:59:39.457Z,96863.59
2023-05-10T23:02:06.185Z,96872.34
2023-05-10T23:04:32.983Z,96871.94
2023-05-10T23:06:59.660Z,96868.63
2023-05-10T23:09:26.314Z,96872.91
2023-05-10T23:11:52.902Z,96875.38
2023-05-10T23:14:19.658Z,96870.91
2023-05-10T23:16:46.443Z,96875.31
2023-05-10T23:19:13.346Z,96872.66
2023-05-10T23:21:39.969Z,96871.38
2023-05-10T23:24:08.652Z,96877.19
2023-05-10T23:26:35.446Z,96880.97
2023-05-10T23:29:02.486Z,96874.06
2023-05-10T23:31:29.199Z,96878.34
2023-05-10T23:33:56.096Z,96881.75
2023-05-10T23:36:22.914Z,96885.75
2023-05-10T23:38:49.513Z,96888.41
2023-05-10T23:41:16.134Z,96877.22
2023-05-10T23:43:42.858Z,96890.31
2023-05-10T23:46:14.769Z,96887.50
2023-05-10T23:48:41.577Z,96883.44
2023-05-10T23:51:08.408Z,96892.38
2023-05-10T23:53:35.114Z,96884.75
2023-05-10T23:56:01.784Z,96885.41
2023-05-10T23:58:28.486Z,96884.00
